createdAt,value
2023-05-19T00:01:48.124Z,22.04
2023-05-19T00:06:52.707Z,22.02
2023-05-19T00:11:56.632Z,21.98
2023-05-19T00:17:01.916Z,21.95
2023-05-19T00:22:06.349Z,21.94
2023-05-19T00:27:09.199Z,21.90
2023-05-19T00:32:12.154Z,21.86
2023-05-19T00:37:16.447Z,21.83
2023-05-19T00:42:19.261Z,21.81
2023-05-19T00:47:22.100Z,21.78
2023-05-19T00:52:26.367Z,21.73
2023-05-19T00:57:29.317Z,21.70
2023-05-19T01:02:32.327Z,21.66
2023-05-19T01:07:36.756Z,21.63
2023-05-19T01:12:39.632Z,21.61
2023-05-19T01:17:46.805Z,21.59
2023-05-19T01:23:24.770Z,21.58
2023-05-19T01:28:33.056Z,21.55
2023-05-19T01:33:37.297Z,21.53
2023-05-19T01:38:40.302Z,21.50
2023-05-19T01:43:43.842Z,21.46
2023-05-19T01:48:48.727Z,21.44
2023-05-19T01:53:51.565Z,21.42
2023-05-19T01:58:55.171Z,21.38
2023-05-19T02:04:14.740Z,21.36
2023-05-19T02:09:19.875Z,21.34
2023-05-19T02:14:26.045Z,21.31
2023-05-19T02:19:33.233Z,21.30
2023-05-19T02:24:36.673Z,21.29
2023-05-19T02:29:39.540Z,21.27
2023-05-19T02:34:48.291Z,21.27
2023-05-19T02:39:51.128Z,21.25
2023-05-19T02:44:55.363Z,21.23
2023-05-19T02:49:59.569Z,21.22
2023-05-19T02:55:02.492Z,21.20
2023-05-19T03:00:09.006Z,21.19
2023-05-19T03:05:14.216Z,21.18
2023-05-19T03:10:16.993Z,21.18
2023-05-19T03:15:22.604Z,21.16
2023-05-19T03:20:26.717Z,21.13
2023-05-19T03:25:30.006Z,21.11
2023-05-19T03:30:33.299Z,21.09
2023-05-19T03:35:52.971Z,21.08
2023-05-19T03:40:56.165Z,21.07
2023-05-19T03:45:59.090Z,21.05
2023-05-19T03:51:22.061Z,21.04
2023-05-19T03:56:27.837Z,21.04
2023-05-19T04:01:30.695Z,21.01
2023-05-19T04:06:36.351Z,20.99
2023-05-19T04:11:39.653Z,21.01
2023-05-19T04:16:42.671Z,21.00
2023-05-19T04:21:47.022Z,21.01
2023-05-19T04:26:49.968Z,21.00
2023-05-19T04:31:54.335Z,21.00
2023-05-19T04:36:59.192Z,21.00
2023-05-19T04:42:02.715Z,21.03
2023-05-19T04:47:08.847Z,21.03
2023-05-19T04:52:13.448Z,21.05
2023-05-19T04:57:17.314Z,21.07
2023-05-19T05:02:21.687Z,21.08
2023-05-19T05:07:26.077Z,21.10
2023-05-19T05:12:30.081Z,21.13
2023-05-19T05:17:33.830Z,21.15
2023-05-19T05:22:39.548Z,21.17
2023-05-19T05:27:43.716Z,21.20
2023-05-19T05:32:46.813Z,21.22
2023-05-19T05:38:05.604Z,21.19
2023-05-19T05:43:09.035Z,21.27
2023-05-19T05:48:18.688Z,21.29
2023-05-19T05:53:23.318Z,21.28
2023-05-19T05:58:29.221Z,21.28
2023-05-19T06:03:33.547Z,21.31
2023-05-19T06:08:42.427Z,21.32
2023-05-19T06:13:45.604Z,21.34
2023-05-19T06:18:57.048Z,21.36
2023-05-19T06:24:01.318Z,21.38
2023-05-19T06:29:04.212Z,21.34
2023-05-19T06:34:07.802Z,21.32
2023-05-19T06:39:12.396Z,21.32
2023-05-19T06:44:15.747Z,21.32
2023-05-19T06:49:24.017Z,21.33
2023-05-19T06:54:28.540Z,21.35
2023-05-19T06:59:33.062Z,21.38
2023-05-19T07:04:36.433Z,21.42
2023-05-19T07:09:40.815Z,21.41
2023-05-19T07:14:44.187Z,21.43
2023-05-19T07:19:48.217Z,21.44
2023-05-19T07:24:53.287Z,21.46
2023-05-19T07:29:56.238Z,21.46
2023-05-19T07:34:59.106Z,21.47
2023-05-19T07:40:03.311Z,20.67
2023-05-19T07:45:07.216Z,20.32
2023-05-19T07:50:10.545Z,20.09
2023-05-19T07:55:14.980Z,20.06
2023-05-19T08:00:19.411Z,20.15
2023-05-19T08:05:22.538Z,20.69
2023-05-19T08:10:26.775Z,20.93
2023-05-19T08:15:29.805Z,21.03
2023-05-19T08:20:34.143Z,21.06
2023-05-19T08:25:38.601Z,21.16
2023-05-19T08:30:41.618Z,21.22
2023-05-19T08:35:44.678Z,21.27
2023-05-19T08:40:49.197Z,21.29
2023-05-19T08:45:54.117Z,21.33
2023-05-19T08:51:00.050Z,21.34
2023-05-19T08:56:10.620Z,21.36
2023-05-19T09:01:16.750Z,21.42
2023-05-19T09:06:20.028Z,21.45
2023-05-19T09:11:24.398Z,21.46
2023-05-19T09:16:29.372Z,21.48
2023-05-19T09:21:33.268Z,21.52
2023-05-19T09:26:41.279Z,21.59
2023-05-19T09:31:50.049Z,21.62
2023-05-19T09:36:54.044Z,21.70
2023-05-19T09:41:58.972Z,21.70
2023-05-19T09:47:02.470Z,21.73
2023-05-19T09:52:06.163Z,21.75
2023-05-19T09:57:10.398Z,21.80
2023-05-19T10:02:16.200Z,21.80
2023-05-19T10:07:19.619Z,21.80
2023-05-19T10:12:23.956Z,21.80
2023-05-19T10:17:27.170Z,21.82
2023-05-19T10:22:30.070Z,21.84
2023-05-19T10:27:35.728Z,21.90
2023-05-19T10:32:39.599Z,21.94
2023-05-19T10:37:46.230Z,21.99
2023-05-19T10:42:58.906Z,22.06
2023-05-19T10:48:02.565Z,22.13
2023-05-19T10:53:05.518Z,22.20
2023-05-19T10:58:10.379Z,22.24
2023-05-19T11:03:14.538Z,22.28
2023-05-19T11:08:17.997Z,22.28
2023-05-19T11:13:23.027Z,22.39
2023-05-19T11:18:26.111Z,22.45
2023-05-19T11:23:29.054Z,22.49
2023-05-19T11:28:33.457Z,22.45
2023-05-19T14:19:55.818Z,23.09
2023-05-19T14:25:00.323Z,23.07
2023-05-19T14:30:03.415Z,23.27
2023-05-19T14:35:08.700Z,23.21
2023-05-19T14:40:12.749Z,23.36
2023-05-19T14:45:16.102Z,23.36
2023-05-19T14:50:20.449Z,24.23
2023-05-19T14:55:23.312Z,24.50
2023-05-19T15:00:26.256Z,24.40
2023-05-19T15:05:30.573Z,24.40
2023-05-19T15:10:33.764Z,24.44
2023-05-19T15:15:36.786Z,24.54
2023-05-19T15:20:41.037Z,24.30
2023-05-19T15:25:45.488Z,24.30
2023-05-19T15:30:48.611Z,25.71
2023-05-19T15:35:52.833Z,25.72
2023-05-19T15:40:55.939Z,25.71
2023-05-19T15:45:58.875Z,26.02
2023-05-19T15:51:03.341Z,25.98
2023-05-19T15:56:06.595Z,25.44
2023-05-19T16:01:09.780Z,25.27
2023-05-19T16:06:14.163Z,24.99
2023-05-19T16:11:18.229Z,25.72
2023-05-19T16:16:21.215Z,25.66
2023-05-19T16:21:25.529Z,25.74
2023-05-19T16:26:28.919Z,25.34
2023-05-19T16:31:31.827Z,24.77
2023-05-19T16:36:36.483Z,24.43
2023-05-19T16:41:41.889Z,24.24
2023-05-19T16:46:44.847Z,24.53
2023-05-19T16:51:49.055Z,24.47
2023-05-19T16:56:52.173Z,24.24
2023-05-19T17:01:56.027Z,24.43
2023-05-19T17:07:00.338Z,24.51
2023-05-19T17:12:03.305Z,24.90
2023-05-19T17:17:06.353Z,25.25
2023-05-19T17:22:10.728Z,24.86
2023-05-19T17:27:15.004Z,24.69
2023-05-19T17:32:18.100Z,24.62
2023-05-19T17:37:25.492Z,24.29
2023-05-19T17:42:29.051Z,24.10
2023-05-19T17:47:31.987Z,23.98
2023-05-19T17:52:37.048Z,23.87
2023-05-19T17:57:41.428Z,23.84
2023-05-19T18:02:45.227Z,23.75
2023-05-19T18:07:49.644Z,23.69
2023-05-19T18:12:52.609Z,23.56
2023-05-19T18:17:55.575Z,23.50
2023-05-19T18:23:00.146Z,23.42
2023-05-19T18:28:03.095Z,23.36
2023-05-19T18:33:07.442Z,23.32
2023-05-19T18:38:11.724Z,23.27
2023-05-19T18:43:14.618Z,23.24
2023-05-19T18:48:17.589Z,23.22
2023-05-19T18:53:22.027Z,23.09
2023-05-19T18:58:25.033Z,23.02
2023-05-19T19:03:28.608Z,23.00
2023-05-19T19:08:32.944Z,23.09
2023-05-19T19:13:35.948Z,23.14
2023-05-19T19:18:39.152Z,23.12
2023-05-19T19:23:43.448Z,23.05
2023-05-19T19:28:46.559Z,22.94
2023-05-19T19:33:49.525Z,23.00
2023-05-19T19:38:53.768Z,22.93
2023-05-19T19:43:56.694Z,23.00
2023-05-19T19:49:00.425Z,22.90
2023-05-19T19:54:04.691Z,22.93
2023-05-19T19:59:07.653Z,22.95
2023-05-19T20:05:16.001Z,22.93
2023-05-19T20:10:20.304Z,22.90
2023-05-19T20:15:23.110Z,22.88
2023-05-19T20:20:25.934Z,22.84
2023-05-19T20:25:30.146Z,22.84
2023-05-19T20:30:33.407Z,22.85
2023-05-19T20:35:36.454Z,22.90
2023-05-19T20:40:40.803Z,22.85
2023-05-19T20:45:44.044Z,22.87
2023-05-19T20:50:46.863Z,22.85
2023-05-19T20:55:51.046Z,22.85
2023-05-19T21:00:57.557Z,22.73
2023-05-19T21:06:00.974Z,22.76
2023-05-19T21:11:05.182Z,22.66
2023-05-19T21:16:08.185Z,22.62
2023-05-19T21:21:11.005Z,22.62
2023-05-19T21:26:15.387Z,22.58
2023-05-19T21:31:18.286Z,22.57
2023-05-19T21:36:21.193Z,22.56
2023-05-19T21:41:25.370Z,22.55
2023-05-19T21:46:29.187Z,22.55
2023-05-19T21:51:34.941Z,22.58
2023-05-19T21:56:39.578Z,22.57
2023-05-19T22:01:42.534Z,22.57
2023-05-19T22:06:45.549Z,22.59
2023-05-19T22:11:49.810Z,22.60
2023-05-19T22:16:52.723Z,22.60
2023-05-19T22:22:01.941Z,22.64
2023-05-19T22:27:14.278Z,22.65
2023-05-19T22:32:18.359Z,22.67
2023-05-19T22:37:22.647Z,22.69
2023-05-19T22:42:27.040Z,22.69
2023-05-19T22:47:29.953Z,22.70
2023-05-19T22:52:32.840Z,22.71
2023-05-19T22:57:37.026Z,22.71
2023-05-19T23:02:39.855Z,22.74
2023-05-19T23:07:42.709Z,22.73
2023-05-19T23:12:46.992Z,22.75
2023-05-19T23:17:49.832Z,22.74
2023-05-19T23:22:52.634Z,22.75
2023-05-19T23:27:56.795Z,22.77
2023-05-19T23:32:59.641Z,22.74
2023-05-19T23:38:02.531Z,22.74
2023-05-19T23:43:06.845Z,22.76
2023-05-19T23:48:09.686Z,22.78
2023-05-19T23:53:12.500Z,22.77
2023-05-19T23:58:16.613Z,22.79
